Time;durP1;ratioP1;P1;durP2;ratioP2;P2;SDS_P1;SDS_P2;PMS_P1;PMS_P2;Temp;Humidity;BMP_temperature;BMP_pressure;BME280_temperature;BME280_humidity;BME280_pressure;Samples;Min_cycle;Max_cycle;Signal;HPM_P1;HPM_P2
2021/05/18 00:01:26;;;;;;;0.70;0.50;;;11.50;99.90;;;;;;5059809;28;20206;-51
2021/05/18 00:03:52;;;;;;;0.70;0.70;;;11.70;99.90;;;;;;5066242;28;20285;-51
2021/05/18 00:06:17;;;;;;;1.17;0.60;;;11.50;99.90;;;;;;5068387;28;20185;-51
2021/05/18 00:11:46;;;;;;;0.80;0.60;;;11.50;99.90;;;;;;5069905;28;20235;-52
2021/05/18 00:14:16;;;;;;;0.90;0.57;;;11.40;99.90;;;;;;5068740;28;20305;-51
2021/05/18 00:16:42;;;;;;;0.85;0.60;;;11.50;99.90;;;;;;5064415;28;20658;-51
2021/05/18 00:19:08;;;;;;;0.80;0.70;;;11.40;99.90;;;;;;5067614;28;20195;-51
2021/05/18 00:21:34;;;;;;;0.60;0.50;;;11.60;99.90;;;;;;5067621;28;20205;-52
2021/05/18 00:24:04;;;;;;;0.60;0.50;;;11.40;99.90;;;;;;5068066;28;20208;-52
2021/05/18 00:26:29;;;;;;;1.30;0.80;;;11.40;99.90;;;;;;5068417;28;20178;-51
2021/05/18 00:28:55;;;;;;;1.60;0.70;;;11.60;99.90;;;;;;5068598;28;20192;-52
2021/05/18 00:31:20;;;;;;;1.00;0.67;;;11.60;99.90;;;;;;5068586;28;20200;-52
2021/05/18 00:33:46;;;;;;;0.70;0.67;;;11.60;99.90;;;;;;5068413;28;20760;-52
2021/05/18 00:36:13;;;;;;;0.60;0.53;;;11.50;99.90;;;;;;5068211;28;20198;-52
2021/05/18 00:38:39;;;;;;;1.55;0.60;;;11.70;99.90;;;;;;5067728;28;20540;-52
2021/05/18 00:41:05;;;;;;;1.17;0.60;;;11.60;99.90;;;;;;5067925;28;20211;-52
2021/05/18 00:43:31;;;;;;;1.20;0.90;;;11.40;99.90;;;;;;5067934;28;20205;-51
2021/05/18 00:45:57;;;;;;;1.37;0.70;;;11.60;99.90;;;;;;5068017;28;20268;-52
2021/05/18 00:48:24;;;;;;;0.87;0.63;;;11.60;99.90;;;;;;5069490;28;20452;-52
2021/05/18 00:50:58;;;;;;;0.60;0.50;;;11.30;99.90;;;;;;5068494;28;20444;-51
2021/05/18 00:53:24;;;;;;;1.05;0.70;;;11.50;99.90;;;;;;5068176;28;20574;-51
2021/05/18 00:58:26;;;;;;;0.93;0.60;;;11.60;99.90;;;;;;5069052;28;20189;-51
2021/05/18 01:00:59;;;;;;;0.70;0.65;;;11.60;99.90;;;;;;5066433;28;20559;-52
2021/05/18 01:03:25;;;;;;;0.70;0.70;;;11.70;99.90;;;;;;5067749;28;20338;-51
2021/05/18 01:08:36;;;;;;;0.80;0.80;;;11.30;99.90;;;;;;5067750;28;20629;-52
2021/05/18 01:11:03;;;;;;;1.13;0.60;;;11.40;99.90;;;;;;5066442;28;20178;-51
2021/05/18 01:13:30;;;;;;;0.90;0.70;;;11.60;99.90;;;;;;5067216;28;20244;-52
2021/05/18 01:15:56;;;;;;;0.90;0.52;;;11.60;99.90;;;;;;5067360;28;20418;-51
2021/05/18 01:18:22;;;;;;;0.70;0.60;;;11.40;99.90;;;;;;5066233;28;20200;-52
2021/05/18 01:20:58;;;;;;;0.73;0.60;;;11.40;99.90;;;;;;5067102;28;20319;-52
2021/05/18 01:23:26;;;;;;;0.82;0.70;;;11.60;99.90;;;;;;5073234;28;20429;-51
2021/05/18 01:25:52;;;;;;;0.70;0.65;;;11.70;99.90;;;;;;5067129;28;20577;-52
2021/05/18 01:28:18;;;;;;;1.00;0.73;;;11.30;99.90;;;;;;5067151;28;20223;-52
2021/05/18 01:30:49;;;;;;;0.85;0.63;;;11.60;99.90;;;;;;5067242;28;20204;-51
2021/05/18 01:33:15;;;;;;;1.20;0.80;;;11.60;99.90;;;;;;5067109;28;20212;-51
2021/05/18 01:35:41;;;;;;;1.20;0.80;;;11.60;99.90;;;;;;5067303;28;20189;-51
2021/05/18 01:38:10;;;;;;;1.10;0.67;;;11.80;99.90;;;;;;5066709;28;20439;-52
2021/05/18 01:43:12;;;;;;;1.60;0.80;;;11.50;99.90;;;;;;5064097;28;20170;-52
2021/05/18 01:45:40;;;;;;;1.00;0.90;;;11.60;99.90;;;;;;5067303;28;20277;-52
2021/05/18 01:48:10;;;;;;;0.90;0.60;;;11.40;99.90;;;;;;5064377;28;20178;-51
2021/05/18 01:50:38;;;;;;;0.73;0.70;;;11.30;99.90;;;;;;5065404;28;20658;-51
2021/05/18 01:53:04;;;;;;;1.13;0.70;;;11.30;99.90;;;;;;5073387;28;20189;-51
2021/05/18 01:57:56;;;;;;;0.80;0.73;;;11.30;99.90;;;;;;5068969;28;20196;-51
2021/05/18 02:00:25;;;;;;;0.70;0.60;;;11.10;99.90;;;;;;5066992;28;20205;-51
2021/05/18 02:02:51;;;;;;;1.20;0.65;;;11.50;99.90;;;;;;5066357;28;20564;-52
2021/05/18 02:05:19;;;;;;;1.55;0.77;;;11.40;99.90;;;;;;5066760;28;20713;-52
2021/05/18 02:07:47;;;;;;;0.70;0.60;;;11.50;99.90;;;;;;5067195;28;20277;-52
2021/05/18 02:10:16;;;;;;;1.25;0.70;;;11.60;99.90;;;;;;5067173;28;20185;-52
2021/05/18 02:12:42;;;;;;;1.50;0.90;;;11.70;99.90;;;;;;5068581;28;20334;-52
2021/05/18 02:18:22;;;;;;;1.20;0.80;;;11.30;99.90;;;;;;5068645;28;20186;-52
2021/05/18 02:21:33;;;;;;;1.77;0.80;;;11.40;99.90;;;;;;5070257;28;20546;-52
2021/05/18 02:26:25;;;;;;;0.75;0.75;;;11.30;99.90;;;;;;5072385;28;20523;-51
2021/05/18 02:28:50;;;;;;;0.80;0.65;;;11.20;99.90;;;;;;5069997;28;20234;-52
2021/05/18 02:31:18;;;;;;;2.20;0.70;;;11.40;99.90;;;;;;5070051;28;20655;-52
2021/05/18 02:33:49;;;;;;;0.80;0.77;;;11.20;99.90;;;;;;5070007;28;20205;-52
2021/05/18 02:36:15;;;;;;;0.70;0.63;;;11.30;99.90;;;;;;5070333;28;20182;-52
2021/05/18 02:38:42;;;;;;;0.90;0.70;;;11.20;99.90;;;;;;5069646;28;20181;-51
2021/05/18 02:41:08;;;;;;;1.25;0.70;;;11.30;99.90;;;;;;5062811;28;20206;-52
2021/05/18 02:44:11;;;;;;;3.72;0.90;;;11.10;99.90;;;;;;5069583;28;20213;-51
2021/05/18 02:49:13;;;;;;;0.60;0.60;;;11.20;99.90;;;;;;5069543;28;20173;-52
2021/05/18 02:51:41;;;;;;;0.95;0.70;;;11.30;99.90;;;;;;5070046;28;20281;-52
2021/05/18 02:54:08;;;;;;;1.10;0.60;;;11.30;99.90;;;;;;5069427;28;20197;-52
2021/05/18 02:59:11;;;;;;;0.70;0.70;;;11.40;99.90;;;;;;5070776;28;20192;-51
2021/05/18 03:01:39;;;;;;;0.85;0.60;;;11.30;99.90;;;;;;5069064;28;20292;-52
2021/05/18 03:04:05;;;;;;;1.00;0.90;;;11.30;99.90;;;;;;5071387;28;20204;-51
2021/05/18 03:06:33;;;;;;;1.10;0.90;;;11.60;99.90;;;;;;5072125;28;20653;-52
2021/05/18 03:08:58;;;;;;;1.55;0.90;;;11.30;99.90;;;;;;5069373;28;20186;-52
2021/05/18 03:11:25;;;;;;;1.00;0.83;;;11.60;99.90;;;;;;5069888;28;20231;-52
2021/05/18 03:13:51;;;;;;;1.02;0.88;;;11.30;99.90;;;;;;5069332;28;20430;-51
2021/05/18 03:16:17;;;;;;;0.93;0.82;;;11.50;99.90;;;;;;5069228;28;20196;-52
2021/05/18 03:18:42;;;;;;;0.80;0.80;;;11.40;99.90;;;;;;5067421;28;20197;-51
2021/05/18 03:21:08;;;;;;;1.67;0.80;;;11.30;99.90;;;;;;5068797;28;20208;-51
2021/05/18 03:23:34;;;;;;;3.13;0.90;;;11.30;99.90;;;;;;5068413;28;20423;-52
2021/05/18 03:26:00;;;;;;;0.80;0.80;;;11.20;99.90;;;;;;5069067;28;20840;-52
2021/05/18 03:28:25;;;;;;;1.00;0.80;;;11.10;99.90;;;;;;5069254;28;20744;-51
2021/05/18 03:36:12;;;;;;;3.83;0.80;;;11.30;99.90;;;;;;5069865;28;20243;-52
2021/05/18 03:41:10;;;;;;;1.30;1.00;;;11.30;99.90;;;;;;5070752;28;20689;-51
2021/05/18 03:43:53;;;;;;;0.82;0.82;;;11.50;99.90;;;;;;5068904;28;20239;-52
2021/05/18 04:10:13;;;;;;;4.57;2.30;;;11.20;99.90;;;;;;5069999;28;20208;-52
2021/05/18 04:18:53;;;;;;;0.90;0.80;;;11.40;99.90;;;;;;5062934;28;20192;-49
2021/05/18 05:01:01;;;;;;;0.80;0.80;;;11.80;99.90;;;;;;5064379;28;20270;-55
2021/05/18 05:16:25;;;;;;;1.40;1.30;;;11.80;99.90;;;;;;5061709;28;20276;-50
2021/05/18 05:18:51;;;;;;;1.20;1.10;;;11.70;99.90;;;;;;5059155;28;20278;-53
2021/05/18 05:21:19;;;;;;;2.53;1.27;;;11.70;99.90;;;;;;5064141;28;20304;-53
2021/05/18 05:23:46;;;;;;;1.27;1.10;;;11.80;99.90;;;;;;5064879;28;20784;-53
2021/05/18 05:26:11;;;;;;;2.58;1.75;;;12.00;99.90;;;;;;5062222;28;20681;-53
2021/05/18 05:28:37;;;;;;;1.63;1.00;;;11.70;99.90;;;;;;5062442;28;20182;-52
2021/05/18 05:31:04;;;;;;;0.93;0.83;;;11.90;99.90;;;;;;5064400;28;20589;-52
2021/05/18 05:33:29;;;;;;;1.73;0.80;;;11.80;99.90;;;;;;5065069;28;20296;-52
2021/05/18 05:35:58;;;;;;;2.93;1.60;;;11.90;99.90;;;;;;5063573;28;20294;-52
2021/05/18 05:38:24;;;;;;;1.38;0.80;;;11.70;99.90;;;;;;5056463;28;20696;-52
2021/05/18 05:40:50;;;;;;;1.10;1.00;;;11.90;99.90;;;;;;5057522;28;20267;-53
2021/05/18 05:43:16;;;;;;;1.53;1.00;;;11.60;99.90;;;;;;5056032;28;20535;-56
2021/05/18 05:45:42;;;;;;;1.20;1.10;;;11.90;99.90;;;;;;5064259;28;20196;-55
2021/05/18 05:48:08;;;;;;;1.30;1.20;;;11.60;99.90;;;;;;5065356;28;20213;-55
2021/05/18 05:50:34;;;;;;;2.43;1.53;;;11.50;99.90;;;;;;5060901;28;20229;-60
2021/05/18 05:52:59;;;;;;;3.17;1.63;;;11.80;99.90;;;;;;5065026;28;20297;-60
2021/05/18 05:55:25;;;;;;;2.63;1.53;;;11.60;99.90;;;;;;5069291;28;20699;-60
2021/05/18 05:57:52;;;;;;;1.83;1.73;;;11.90;99.90;;;;;;5068350;28;20181;-59
2021/05/18 06:00:18;;;;;;;2.30;1.75;;;12.00;99.90;;;;;;5070087;28;20223;-60
2021/05/18 06:02:44;;;;;;;1.77;1.27;;;11.90;99.90;;;;;;5067113;28;20189;-59
2021/05/18 06:05:10;;;;;;;1.57;1.47;;;11.70;99.90;;;;;;5065009;28;20478;-59
2021/05/18 06:07:35;;;;;;;3.37;1.50;;;11.80;99.90;;;;;;5063920;28;20617;-60
2021/05/18 06:10:09;;;;;;;1.90;1.60;;;11.90;99.90;;;;;;5069585;28;20789;-60
2021/05/18 06:12:58;;;;;;;1.25;1.15;;;11.90;99.90;;;;;;5066327;28;20527;-60
2021/05/18 06:42:58;;;;;;;1.42;1.33;;;11.50;99.90;;;;;;5068666;28;20683;-52
2021/05/18 06:48:08;;;;;;;2.38;1.30;;;12.10;99.90;;;;;;5062512;28;20181;-51
2021/05/18 06:50:33;;;;;;;1.70;1.33;;;12.20;99.90;;;;;;5063593;28;20187;-50
2021/05/18 06:52:59;;;;;;;1.57;1.10;;;12.20;99.90;;;;;;5065781;28;20457;-51
2021/05/18 06:55:28;;;;;;;2.70;1.30;;;12.20;99.90;;;;;;5068917;28;21092;-52
2021/05/18 07:00:06;;;;;;;1.88;1.17;;;12.40;99.90;;;;;;5069874;28;20187;-50
2021/05/18 07:00:43;;;;;;;6.53;1.90;;;12.90;99.90;;;;;;5059977;28;20621;-50
2021/05/18 07:03:12;;;;;;;3.00;1.37;;;13.00;99.90;;;;;;5069179;28;20236;-50
2021/05/18 07:10:46;;;;;;;1.33;0.90;;;13.40;99.90;;;;;;5070238;28;20188;-50
2021/05/18 07:13:13;;;;;;;1.02;0.93;;;13.40;99.90;;;;;;5062669;28;20188;-50
2021/05/18 07:15:39;;;;;;;1.13;0.95;;;13.60;99.90;;;;;;5068839;28;20278;-50
2021/05/18 07:18:08;;;;;;;1.10;0.82;;;13.60;99.90;;;;;;5068777;28;20189;-50
2021/05/18 07:20:34;;;;;;;2.40;1.08;;;13.70;99.90;;;;;;5074865;28;20207;-50
2021/05/18 07:23:06;;;;;;;2.45;1.00;;;13.70;99.90;;;;;;5060575;28;20224;-51
2021/05/18 07:25:32;;;;;;;1.42;1.30;;;13.90;99.90;;;;;;5067087;28;20180;-50
2021/05/18 07:27:59;;;;;;;6.07;1.83;;;13.70;99.90;;;;;;5069288;28;20724;-52
2021/05/18 07:30:25;;;;;;;2.15;1.40;;;13.90;99.90;;;;;;5062324;28;20185;-52
2021/05/18 07:32:50;;;;;;;2.17;1.10;;;14.00;99.90;;;;;;5063946;28;20211;-52
2021/05/18 07:35:16;;;;;;;1.60;0.90;;;14.30;99.90;;;;;;5059391;28;20231;-53
2021/05/18 07:37:43;;;;;;;1.42;1.20;;;14.50;99.90;;;;;;5066181;28;20325;-52
2021/05/18 07:40:09;;;;;;;2.45;1.70;;;14.60;99.90;;;;;;5066787;28;20220;-52
2021/05/18 07:42:35;;;;;;;1.17;1.07;;;14.80;99.90;;;;;;5066680;28;20297;-54
2021/05/18 07:45:00;;;;;;;1.60;1.10;;;15.00;99.90;;;;;;5063726;28;20464;-51
2021/05/18 07:47:31;;;;;;;1.73;1.10;;;15.00;99.90;;;;;;5067920;28;20649;-51
2021/05/18 07:50:03;;;;;;;1.77;1.00;;;15.00;99.90;;;;;;5067456;28;20951;-51
2021/05/18 08:01:04;;;;;;;1.10;1.00;;;14.40;99.90;;;;;;5063625;28;20249;-54
2021/05/18 08:06:11;;;;;;;1.33;0.90;;;13.90;99.90;;;;;;5060781;28;20747;-51
2021/05/18 08:08:37;;;;;;;2.50;1.10;;;13.80;99.90;;;;;;5059231;28;20322;-52
2021/05/18 08:11:03;;;;;;;1.40;1.30;;;13.70;99.90;;;;;;5068679;28;20180;-50
2021/05/18 08:13:29;;;;;;;2.20;1.93;;;14.10;99.90;;;;;;5063623;28;20223;-53
2021/05/18 08:49:19;;;;;;;3.80;2.88;;;13.90;99.90;;;;;;5061089;28;20192;-56
2021/05/18 10:36:28;;;;;;;2.10;1.13;;;16.90;94.00;;;;;;5067832;28;20533;-52
2021/05/18 10:39:31;;;;;;;1.55;0.90;;;16.80;93.80;;;;;;5068069;28;20196;-51
2021/05/18 10:42:11;;;;;;;3.45;1.27;;;17.30;93.40;;;;;;5064320;28;20200;-52
2021/05/18 10:44:56;;;;;;;3.50;1.05;;;18.20;92.40;;;;;;5058794;28;20212;-52
2021/05/18 10:47:45;;;;;;;0.95;0.85;;;18.70;92.30;;;;;;5068436;28;20195;-52
2021/05/18 10:50:12;;;;;;;1.67;0.70;;;19.00;90.40;;;;;;5066150;28;20180;-52
2021/05/18 10:52:38;;;;;;;3.42;2.53;;;19.60;86.80;;;;;;5068422;28;20192;-52
2021/05/18 10:55:08;;;;;;;2.08;1.40;;;20.70;79.70;;;;;;5065657;28;20213;-53
2021/05/18 10:57:33;;;;;;;2.78;0.90;;;20.90;75.80;;;;;;5065625;28;20185;-51
2021/05/18 11:00:02;;;;;;;1.37;0.90;;;21.10;73.20;;;;;;5067939;28;20181;-53
2021/05/18 11:02:36;;;;;;;3.50;0.80;;;22.00;69.10;;;;;;5064772;28;20234;-53
2021/05/18 11:05:05;;;;;;;1.77;0.80;;;22.80;65.00;;;;;;5067594;28;20462;-52
2021/05/18 11:07:36;;;;;;;1.13;1.03;;;22.60;62.30;;;;;;5067832;28;21868;-53
2021/05/18 11:10:14;;;;;;;0.90;0.80;;;22.80;64.80;;;;;;5065186;28;20476;-53
2021/05/18 11:12:41;;;;;;;1.27;1.07;;;22.40;63.50;;;;;;5064814;28;20596;-51
2021/05/18 11:15:14;;;;;;;1.10;0.90;;;22.80;62.90;;;;;;5067257;28;20455;-52
2021/05/18 11:17:42;;;;;;;0.80;0.80;;;23.00;59.70;;;;;;5063348;28;20547;-51
2021/05/18 11:20:14;;;;;;;2.07;1.00;;;22.80;59.20;;;;;;5085754;28;20521;-51
2021/05/18 11:23:31;;;;;;;1.57;0.70;;;23.10;58.90;;;;;;5066944;28;20494;-51
2021/05/18 11:26:06;;;;;;;1.57;0.87;;;23.20;57.80;;;;;;5060351;28;20439;-51
2021/05/18 11:28:43;;;;;;;2.40;0.73;;;22.60;57.60;;;;;;5064573;28;20432;-50
2021/05/18 11:31:10;;;;;;;5.13;1.40;;;22.30;57.70;;;;;;5074458;28;20494;-50
2021/05/18 11:33:58;;;;;;;1.73;0.93;;;21.80;60.00;;;;;;5063119;28;20451;-51
2021/05/18 11:36:28;;;;;;;1.37;1.00;;;22.00;59.00;;;;;;5060521;28;20524;-51
2021/05/18 11:39:14;;;;;;;1.75;1.13;;;22.20;59.30;;;;;;5069096;28;20813;-51
2021/05/18 11:41:42;;;;;;;1.67;0.80;;;21.80;59.10;;;;;;5067808;28;20254;-51
2021/05/18 11:44:12;;;;;;;3.10;1.00;;;21.00;61.50;;;;;;5064188;28;20678;-52
2021/05/18 11:46:49;;;;;;;2.40;0.70;;;19.80;66.30;;;;;;5066942;28;20185;-53
2021/05/18 11:49:18;;;;;;;3.28;1.33;;;18.70;81.80;;;;;;5066097;28;20279;-53
2021/05/18 11:51:47;;;;;;;1.98;1.20;;;17.30;85.60;;;;;;5067721;28;20709;-54
2021/05/18 11:54:15;;;;;;;1.83;1.10;;;16.80;92.60;;;;;;5066612;28;20612;-54
2021/05/18 11:56:45;;;;;;;0.80;0.80;;;15.80;94.40;;;;;;5058439;28;20184;-53
2021/05/18 11:59:17;;;;;;;1.15;0.70;;;15.60;97.40;;;;;;5082532;28;20189;-54
2021/05/18 12:02:04;;;;;;;2.88;0.88;;;15.50;95.00;;;;;;5067021;28;20231;-54
2021/05/18 12:04:31;;;;;;;1.30;0.90;;;15.40;94.90;;;;;;5062402;28;20299;-53
2021/05/18 12:07:08;;;;;;;1.25;0.60;;;15.40;94.80;;;;;;5065813;28;20180;-53
2021/05/18 12:09:35;;;;;;;2.92;0.80;;;15.70;94.30;;;;;;5068174;28;20303;-52
2021/05/18 12:12:05;;;;;;;2.25;1.10;;;16.30;93.90;;;;;;5066299;28;20212;-53
2021/05/18 12:14:31;;;;;;;3.30;1.00;;;16.20;95.40;;;;;;5065438;28;20661;-53
2021/05/18 12:16:58;;;;;;;1.73;0.73;;;16.30;94.50;;;;;;5067591;28;20199;-52
2021/05/18 12:19:24;;;;;;;1.20;0.80;;;16.30;91.30;;;;;;5066508;28;20711;-53
2021/05/18 12:21:54;;;;;;;1.45;0.98;;;16.30;91.70;;;;;;5065021;28;20212;-53
2021/05/18 12:24:25;;;;;;;1.42;0.80;;;16.70;91.90;;;;;;5065586;28;20373;-53
2021/05/18 12:26:50;;;;;;;1.80;1.55;;;16.80;94.10;;;;;;5070688;28;20208;-52
2021/05/18 12:29:38;;;;;;;0.93;0.83;;;16.90;92.50;;;;;;5064717;28;20215;-52
2021/05/18 12:32:25;;;;;;;2.78;0.80;;;16.80;92.50;;;;;;5058884;28;20633;-52
2021/05/18 12:35:14;;;;;;;2.08;1.08;;;16.80;88.90;;;;;;5066682;28;20257;-52
2021/05/18 12:37:48;;;;;;;1.13;0.80;;;16.50;91.60;;;;;;5064141;28;20180;-53
2021/05/18 12:40:29;;;;;;;2.50;1.10;;;17.10;90.40;;;;;;5066840;28;20192;-53
2021/05/18 12:43:06;;;;;;;1.02;0.80;;;16.80;90.00;;;;;;5065662;28;20200;-54
2021/05/18 12:45:31;;;;;;;4.03;1.00;;;17.20;90.30;;;;;;5065064;28;20220;-54
2021/05/18 12:47:59;;;;;;;2.30;1.00;;;17.00;90.10;;;;;;5064146;28;20231;-53
2021/05/18 12:50:54;;;;;;;1.77;1.15;;;16.70;90.00;;;;;;5063839;28;20204;-54
2021/05/18 12:53:28;;;;;;;1.80;1.00;;;17.10;90.20;;;;;;5051637;28;20189;-53
2021/05/18 12:55:55;;;;;;;1.77;1.02;;;17.00;85.90;;;;;;5057681;28;20697;-54
2021/05/18 12:58:29;;;;;;;1.10;0.90;;;16.70;87.40;;;;;;5066595;28;20211;-54
2021/05/18 13:01:17;;;;;;;1.77;1.00;;;16.80;87.30;;;;;;5061409;28;20200;-54
2021/05/18 13:03:44;;;;;;;1.40;1.20;;;17.20;91.00;;;;;;5060953;28;20202;-54
2021/05/18 13:06:10;;;;;;;1.67;0.90;;;17.10;93.20;;;;;;5072970;28;20178;-54
2021/05/18 13:08:38;;;;;;;1.45;0.77;;;16.90;92.40;;;;;;5065390;28;20213;-54
2021/05/18 13:12:11;;;;;;;1.10;0.70;;;16.60;91.40;;;;;;5060454;28;20184;-53
2021/05/18 13:14:04;;;;;;;0.80;0.70;;;16.60;91.00;;;;;;5066538;28;20257;-54
2021/05/18 13:16:34;;;;;;;1.27;0.70;;;16.40;90.20;;;;;;5067008;28;20587;-52
2021/05/18 13:19:12;;;;;;;2.92;1.83;;;16.10;90.30;;;;;;5067294;28;20447;-54
2021/05/18 13:21:50;;;;;;;2.08;1.55;;;16.50;90.90;;;;;;5064781;28;20303;-53
2021/05/18 13:26:48;;;;;;;1.20;0.85;;;16.60;91.50;;;;;;5059520;28;20177;-53
2021/05/18 13:29:17;;;;;;;1.60;1.17;;;16.90;90.90;;;;;;5062345;28;20488;-54
2021/05/18 13:31:43;;;;;;;1.33;0.90;;;16.90;88.30;;;;;;5064156;28;20204;-53
2021/05/18 13:34:09;;;;;;;1.35;0.70;;;17.30;86.40;;;;;;5064840;28;20224;-53
2021/05/18 13:36:36;;;;;;;3.53;0.70;;;17.20;85.80;;;;;;5066340;28;20234;-52
2021/05/18 13:39:26;;;;;;;1.02;0.93;;;17.30;84.00;;;;;;5060514;28;20646;-52
2021/05/18 13:41:52;;;;;;;1.73;1.02;;;17.70;83.50;;;;;;5068953;28;20221;-52
2021/05/18 13:44:19;;;;;;;2.60;0.90;;;17.70;72.80;;;;;;5063689;28;20206;-52
2021/05/18 13:46:46;;;;;;;1.50;0.75;;;17.70;71.80;;;;;;5061426;28;20629;-52
2021/05/18 13:49:13;;;;;;;3.00;0.75;;;17.90;74.50;;;;;;5065779;28;20185;-51
2021/05/18 13:51:39;;;;;;;0.90;0.65;;;17.90;73.40;;;;;;5064334;28;20195;-52
2021/05/18 13:54:05;;;;;;;2.13;0.90;;;17.90;74.90;;;;;;5066035;28;20205;-52
2021/05/18 13:56:33;;;;;;;2.00;1.58;;;17.80;77.10;;;;;;5063358;28;20185;-53
2021/05/18 13:58:59;;;;;;;1.60;0.80;;;17.80;79.90;;;;;;5061871;28;20186;-51
2021/05/18 14:01:25;;;;;;;0.95;0.80;;;17.40;81.50;;;;;;5061570;28;20592;-51
2021/05/18 14:03:53;;;;;;;3.45;1.20;;;17.20;83.70;;;;;;5060569;28;20201;-51
2021/05/18 14:06:19;;;;;;;2.78;0.98;;;16.90;85.30;;;;;;5066016;28;20177;-51
2021/05/18 14:08:45;;;;;;;1.80;1.20;;;16.70;87.60;;;;;;5069491;28;20188;-51
2021/05/18 14:11:21;;;;;;;2.42;0.80;;;16.50;92.00;;;;;;5070231;28;20206;-51
2021/05/18 14:13:51;;;;;;;1.73;1.63;;;15.70;93.90;;;;;;5067178;28;20586;-52
2021/05/18 14:16:19;;;;;;;1.63;0.82;;;15.20;96.20;;;;;;5068823;28;20212;-51
2021/05/18 14:18:49;;;;;;;2.42;1.30;;;14.90;97.70;;;;;;5068725;28;20276;-51
2021/05/18 14:21:14;;;;;;;2.13;1.10;;;15.00;98.50;;;;;;5069077;28;20260;-51
2021/05/18 14:23:55;;;;;;;4.70;1.20;;;14.60;99.70;;;;;;5068133;28;20266;-51
2021/05/18 14:26:29;;;;;;;2.05;1.10;;;14.90;99.60;;;;;;5061288;28;20184;-51
2021/05/18 14:28:54;;;;;;;2.45;0.90;;;15.00;99.90;;;;;;5065006;28;20176;-51
2021/05/18 14:31:21;;;;;;;1.07;0.80;;;15.20;99.90;;;;;;5068734;28;20571;-51
2021/05/18 14:33:47;;;;;;;1.52;0.77;;;15.20;96.60;;;;;;5066407;28;20235;-52
2021/05/18 14:36:13;;;;;;;1.60;1.23;;;15.40;97.30;;;;;;5069725;28;20647;-52
2021/05/18 14:38:42;;;;;;;2.45;0.98;;;15.40;98.40;;;;;;5066336;28;20590;-52
2021/05/18 14:46:31;;;;;;;3.08;0.80;;;15.70;94.00;;;;;;5066056;28;20187;-54
2021/05/18 14:56:57;;;;;;;0.80;0.60;;;15.90;91.60;;;;;;5060741;28;20177;-53
2021/05/18 14:59:23;;;;;;;0.80;0.73;;;15.80;90.80;;;;;;5065190;28;20225;-53
2021/05/18 15:01:49;;;;;;;1.10;0.60;;;15.50;90.00;;;;;;5067829;28;20498;-54
2021/05/18 15:04:15;;;;;;;1.60;1.00;;;15.60;91.20;;;;;;5068843;28;20201;-55
2021/05/18 15:06:41;;;;;;;2.33;1.10;;;15.90;91.10;;;;;;5060922;28;20692;-54
2021/05/18 15:09:07;;;;;;;0.60;0.50;;;16.00;90.20;;;;;;5067055;28;20531;-55
2021/05/18 15:11:34;;;;;;;3.38;0.80;;;15.50;88.40;;;;;;5066365;28;20656;-55
2021/05/18 15:13:59;;;;;;;2.10;0.82;;;15.80;88.20;;;;;;5068162;28;20215;-54
2021/05/18 15:16:25;;;;;;;1.13;0.70;;;15.80;88.10;;;;;;5072749;28;20280;-55
2021/05/18 15:18:52;;;;;;;0.90;0.80;;;15.90;87.70;;;;;;5066662;28;20223;-54
2021/05/18 15:21:20;;;;;;;0.95;0.77;;;15.60;89.80;;;;;;5063968;28;20655;-54
2021/05/18 15:23:46;;;;;;;2.08;0.98;;;15.80;89.60;;;;;;5065207;28;20200;-54
2021/05/18 15:26:13;;;;;;;2.15;0.70;;;15.80;90.20;;;;;;5065962;28;20189;-55
2021/05/18 15:28:43;;;;;;;1.80;0.82;;;16.00;89.60;;;;;;5060627;28;20634;-54
2021/05/18 15:31:09;;;;;;;3.22;1.88;;;16.40;88.10;;;;;;5059419;28;20203;-54
2021/05/18 15:33:35;;;;;;;1.00;0.90;;;15.90;85.70;;;;;;5068884;28;20320;-53
2021/05/18 15:36:02;;;;;;;1.73;0.80;;;16.10;86.10;;;;;;5066623;28;20709;-55
2021/05/18 15:38:29;;;;;;;1.50;1.10;;;15.90;86.80;;;;;;5068802;28;20632;-54
2021/05/18 15:40:56;;;;;;;1.02;0.80;;;15.70;87.90;;;;;;5065766;28;20204;-55
2021/05/18 15:43:22;;;;;;;1.75;0.93;;;16.00;89.00;;;;;;5067357;28;20192;-55
2021/05/18 15:45:47;;;;;;;0.82;0.80;;;15.80;89.10;;;;;;5066689;28;20605;-55
2021/05/18 15:48:13;;;;;;;1.20;1.00;;;15.80;88.30;;;;;;5066659;28;20591;-54
2021/05/18 15:50:39;;;;;;;1.70;1.00;;;15.80;88.90;;;;;;5065033;28;20208;-55
2021/05/18 15:53:05;;;;;;;1.97;1.50;;;15.90;89.40;;;;;;5061359;28;20204;-54
2021/05/18 15:55:30;;;;;;;3.03;1.10;;;15.90;89.50;;;;;;5067922;28;20197;-54
2021/05/18 15:57:56;;;;;;;1.43;1.00;;;15.90;89.00;;;;;;5062813;28;20192;-55
2021/05/18 16:00:22;;;;;;;2.40;1.27;;;15.90;89.10;;;;;;5065624;28;20188;-54
2021/05/18 16:02:48;;;;;;;1.00;0.83;;;16.00;88.70;;;;;;5065847;28;20213;-55
2021/05/18 16:05:13;;;;;;;4.70;1.83;;;15.70;87.20;;;;;;5067287;28;20228;-55
2021/05/18 16:07:42;;;;;;;1.80;1.30;;;15.60;88.00;;;;;;5068185;28;20219;-55
2021/05/18 16:10:08;;;;;;;1.27;1.10;;;15.60;88.20;;;;;;5063973;28;20447;-55
2021/05/18 16:12:34;;;;;;;2.25;1.10;;;15.30;87.90;;;;;;5067378;28;20191;-54
2021/05/18 16:14:59;;;;;;;3.43;1.60;;;15.60;90.70;;;;;;5059059;28;20504;-54
2021/05/18 16:17:25;;;;;;;3.97;1.33;;;15.70;93.20;;;;;;5066007;28;20196;-53
2021/05/18 16:19:51;;;;;;;4.67;1.27;;;15.20;94.40;;;;;;5067616;28;20188;-54
2021/05/18 16:22:17;;;;;;;4.70;2.07;;;14.80;96.80;;;;;;5061446;28;20304;-55
2021/05/18 16:24:45;;;;;;;4.03;1.90;;;14.40;98.80;;;;;;5059545;28;20572;-55
2021/05/18 16:27:15;;;;;;;4.47;1.95;;;14.00;99.90;;;;;;5057099;28;20447;-54
2021/05/18 16:29:41;;;;;;;4.22;1.17;;;13.80;99.90;;;;;;5063822;28;20222;-55
2021/05/18 16:32:06;;;;;;;2.08;1.20;;;13.50;99.90;;;;;;5063619;28;20200;-55
2021/05/18 16:34:32;;;;;;;3.20;1.10;;;13.30;99.90;;;;;;5065622;28;20361;-56
2021/05/18 16:36:58;;;;;;;1.00;0.90;;;13.30;99.90;;;;;;5062236;28;20196;-52
2021/05/18 16:39:24;;;;;;;0.80;0.70;;;13.40;99.90;;;;;;5065310;28;20190;-52
2021/05/18 16:41:53;;;;;;;2.58;0.90;;;13.30;99.90;;;;;;5068831;28;20197;-53
2021/05/18 16:44:19;;;;;;;1.48;1.13;;;13.20;99.90;;;;;;5064635;28;20209;-53
2021/05/18 16:46:44;;;;;;;1.20;1.10;;;13.30;99.90;;;;;;5062862;28;20589;-53
2021/05/18 16:49:10;;;;;;;1.50;1.20;;;13.40;99.90;;;;;;5063185;28;20475;-53
2021/05/18 16:51:37;;;;;;;1.60;1.50;;;13.20;99.90;;;;;;5063223;28;20214;-54
2021/05/18 16:54:06;;;;;;;1.60;1.50;;;13.00;99.90;;;;;;5063806;28;20542;-55
2021/05/18 16:56:32;;;;;;;2.92;2.05;;;13.00;99.90;;;;;;5059904;28;20180;-54
2021/05/18 16:58:57;;;;;;;3.40;2.80;;;12.90;99.90;;;;;;5064289;28;20269;-54
2021/05/18 17:01:23;;;;;;;2.13;1.73;;;12.70;99.90;;;;;;5066670;28;20457;-54
2021/05/18 17:03:49;;;;;;;1.50;1.40;;;12.50;99.90;;;;;;5061978;28;20679;-54
2021/05/18 17:06:15;;;;;;;2.30;1.43;;;12.90;99.90;;;;;;5060315;28;20883;-54
2021/05/18 17:08:43;;;;;;;1.53;1.43;;;12.70;99.90;;;;;;5064549;28;20416;-55
2021/05/18 17:11:10;;;;;;;2.88;1.23;;;13.00;99.90;;;;;;5067586;28;20865;-54
2021/05/18 17:13:35;;;;;;;1.75;1.30;;;13.10;99.90;;;;;;5066498;28;20644;-54
2021/05/18 17:16:02;;;;;;;3.53;1.70;;;13.10;99.90;;;;;;5066014;28;20187;-54
2021/05/18 17:18:28;;;;;;;1.70;1.60;;;13.30;99.90;;;;;;5067014;28;20195;-55
2021/05/18 17:20:53;;;;;;;2.47;2.20;;;13.30;99.90;;;;;;5066819;28;20244;-55
2021/05/18 17:23:19;;;;;;;5.60;2.00;;;13.30;99.90;;;;;;5067176;28;20236;-53
2021/05/18 17:25:45;;;;;;;1.70;0.88;;;13.20;99.90;;;;;;5063052;28;20699;-54
2021/05/18 17:28:11;;;;;;;4.23;1.63;;;13.20;99.90;;;;;;5066870;28;20581;-54
2021/05/18 17:30:36;;;;;;;1.47;0.90;;;13.00;99.90;;;;;;5065371;28;20277;-54
2021/05/18 17:33:02;;;;;;;1.80;0.90;;;13.00;99.90;;;;;;5065540;28;20221;-53
2021/05/18 17:35:28;;;;;;;1.77;0.90;;;12.30;99.90;;;;;;5064493;28;20202;-54
2021/05/18 17:37:54;;;;;;;1.30;0.90;;;12.40;99.90;;;;;;5067582;28;20565;-54
2021/05/18 17:40:20;;;;;;;1.95;0.88;;;12.00;99.90;;;;;;5065698;28;20181;-55
2021/05/18 17:42:46;;;;;;;1.60;0.90;;;11.70;99.90;;;;;;5061623;28;20213;-55
2021/05/18 17:45:13;;;;;;;3.27;1.00;;;11.90;99.90;;;;;;5068732;28;20212;-55
2021/05/18 17:47:40;;;;;;;1.85;1.08;;;11.50;99.90;;;;;;5067415;28;20440;-53
2021/05/18 17:50:09;;;;;;;1.35;0.90;;;11.60;99.90;;;;;;5068607;28;20189;-55
2021/05/18 17:52:34;;;;;;;1.27;1.00;;;11.40;99.90;;;;;;5063270;28;20227;-55
2021/05/18 17:55:05;;;;;;;1.20;0.90;;;11.40;99.90;;;;;;5065613;28;20240;-55
2021/05/18 17:57:31;;;;;;;3.80;1.70;;;11.50;99.90;;;;;;5070443;28;20192;-53
2021/05/18 17:59:56;;;;;;;1.80;1.20;;;11.50;99.90;;;;;;5069938;28;20188;-54
2021/05/18 18:02:22;;;;;;;1.10;1.00;;;11.20;99.90;;;;;;5065709;28;20300;-55
2021/05/18 18:04:48;;;;;;;1.20;1.10;;;11.30;99.90;;;;;;5069976;28;20209;-55
2021/05/18 18:07:15;;;;;;;2.10;1.20;;;11.40;99.90;;;;;;5068741;28;20186;-54
2021/05/18 18:09:42;;;;;;;1.15;0.90;;;11.40;99.90;;;;;;5066213;28;20209;-55
2021/05/18 18:12:09;;;;;;;1.85;1.10;;;11.30;99.90;;;;;;5068190;28;20237;-54